Main page
METAR-TAF:

METAR-TAF

Airports :

Rodez–Aveyron Airport

Rodez, France

latitude: 44-24N, longitude: 002-29E, elevation: 581 m

Current weather observation

The report was made 13 minutes ago, at 15:30 UTC
Wind 10 kt from the West, varying between West/Southwest and Northwest
Temperature 15°C
Humidity 39%
Pressure 1016 hPa
Visibility 10 km or more
no clouds below 1500 m and no cumulonimbus

METAR: LFCR 281530Z AUTO 27010KT 240V310 CAVOK 15/01 Q1016

Time: 16:43 (15:43 UTC)

Forecast

The report was made 22 hours and 43 minutes ago, at 17:00 UTC
Forecast valid from 27 at 18 UTC to 28 at 18 UTC
Wind 5 kt from the West
Visibility 10 km or more
no clouds below 1500 m and no cumulonimbus

TAF: LFCR 271700Z 2718/2818 28005KT CAVOK

Weather observations and forecasts of more than 4000 airports (METAR and TAF reports).

The available stations are represented by yellow and red dots on the map.

Hover mouse over dot to see the name of the station.

Then click to see weather observations and forecasts.

To change the map : click on the green buttons with a black cross to zoom in, on the green button with a dash to zoom out, or on the green arrows for adjacent maps.


METAR-TAF: